createdAt,value
2016-09-19T00:28:10.493Z,23.63
2016-09-19T00:29:20.840Z,23.67
2016-09-19T00:30:31.186Z,23.69
2016-09-19T00:31:41.536Z,23.67
2016-09-19T00:32:51.876Z,23.66
2016-09-19T00:34:02.233Z,23.64
2016-09-19T00:35:12.585Z,23.66
2016-09-19T00:36:22.940Z,23.63
2016-09-19T00:37:33.293Z,23.62
2016-09-19T00:38:43.649Z,23.69
2016-09-19T00:39:54.007Z,23.67
2016-09-19T00:41:04.361Z,23.63
2016-09-19T00:42:14.728Z,23.63
2016-09-19T00:43:25.069Z,23.64
2016-09-19T00:44:35.432Z,23.58
2016-09-19T00:45:45.789Z,23.58
2016-09-19T00:46:56.149Z,23.58
2016-09-19T00:48:06.506Z,23.58
2016-09-19T01:28:08.389Z,23.56
2016-09-19T01:29:18.735Z,23.56
2016-09-19T01:30:29.086Z,23.52
2016-09-19T01:31:39.436Z,23.49
2016-09-19T01:32:49.790Z,23.54
2016-09-19T01:34:00.137Z,23.52
2016-09-19T01:35:10.483Z,23.49
2016-09-19T01:36:20.846Z,23.54
2016-09-19T01:37:31.193Z,23.51
2016-09-19T01:38:41.550Z,23.51
2016-09-19T01:39:51.905Z,23.49
2016-09-19T01:41:02.261Z,23.52
2016-09-19T01:42:12.605Z,23.55
2016-09-19T01:43:22.956Z,23.49
2016-09-19T01:44:33.324Z,23.51
2016-09-19T01:45:43.666Z,23.49
2016-09-19T01:46:54.027Z,23.51
2016-09-19T01:48:04.386Z,23.52
2016-09-19T01:49:14.739Z,23.51
2016-09-19T01:50:25.105Z,23.48
2016-09-19T01:51:35.457Z,23.49
2016-09-19T01:52:45.809Z,23.52
2016-09-19T01:53:56.166Z,23.49
2016-09-19T01:55:06.526Z,23.51
2016-09-19T01:56:16.882Z,23.48
2016-09-19T01:57:27.246Z,23.45
2016-09-19T01:58:37.602Z,23.49
2016-09-19T01:59:47.958Z,23.47
2016-09-19T02:00:58.316Z,23.45
2016-09-19T02:02:08.674Z,23.47
2016-09-19T02:03:19.030Z,23.47
2016-09-19T02:27:56.831Z,23.44
2016-09-19T02:29:07.185Z,23.42
2016-09-19T02:30:17.533Z,23.4
2016-09-19T02:31:27.871Z,23.48
2016-09-19T02:32:38.224Z,23.48
2016-09-19T02:33:48.574Z,23.47
2016-09-19T03:28:07.651Z,23.44
2016-09-19T03:29:18.005Z,23.44
2016-09-19T03:30:28.356Z,23.48
2016-09-19T03:31:38.707Z,23.36
2016-09-19T03:32:49.059Z,23.4
2016-09-19T03:33:59.411Z,23.4
2016-09-19T03:35:09.766Z,23.44
2016-09-19T03:36:20.112Z,23.45
2016-09-19T03:37:30.463Z,23.48
2016-09-19T03:38:40.822Z,23.4
2016-09-19T03:39:51.172Z,23.45
2016-09-19T03:41:01.535Z,23.45
2016-09-19T04:28:13.567Z,23.29
2016-09-19T04:29:23.925Z,23.32
2016-09-19T04:30:34.299Z,23.28
2016-09-19T04:31:44.651Z,23.32
2016-09-19T04:32:55.005Z,23.29
2016-09-19T04:34:05.357Z,23.36
2016-09-19T04:35:15.714Z,23.37
2016-09-19T04:36:26.073Z,23.29
2016-09-19T04:37:36.427Z,23.33
2016-09-19T04:38:46.782Z,23.39
2016-09-19T04:39:57.135Z,23.32
2016-09-19T04:41:07.490Z,23.34
2016-09-19T04:42:17.847Z,23.36
2016-09-19T04:43:28.201Z,23.39
2016-09-19T04:44:38.556Z,23.4
2016-09-19T04:45:48.911Z,23.37
2016-09-19T04:46:59.269Z,23.39
2016-09-19T04:48:09.625Z,23.45
2016-09-19T05:27:50.278Z,23.49
2016-09-19T06:27:41.796Z,23.62
2016-09-19T06:28:52.204Z,23.54
2016-09-19T06:30:02.528Z,23.52
2016-09-19T06:31:12.884Z,23.58
2016-09-19T06:32:23.236Z,23.58
2016-09-19T07:27:39.384Z,23.58
2016-09-19T07:28:49.724Z,23.58
2016-09-19T07:30:00.082Z,23.63
2016-09-19T07:31:10.428Z,23.64
2016-09-19T07:32:20.783Z,23.67
2016-09-19T07:33:31.137Z,23.63
2016-09-19T07:34:41.490Z,23.63
2016-09-19T07:35:51.842Z,23.67
2016-09-19T07:37:02.196Z,23.67
2016-09-19T07:38:12.552Z,23.67
2016-09-19T07:39:22.906Z,23.69
2016-09-19T07:40:33.259Z,23.67
2016-09-19T07:41:43.614Z,23.64
2016-09-19T08:27:28.435Z,23.71
2016-09-19T08:28:38.838Z,23.73
2016-09-19T08:29:49.187Z,23.64
2016-09-19T08:30:59.548Z,23.73
2016-09-19T08:32:09.899Z,23.58
2016-09-19T09:27:25.105Z,23.7
2016-09-19T09:28:35.505Z,23.7
2016-09-19T09:29:45.859Z,23.7
2016-09-19T09:30:56.212Z,23.73
2016-09-19T09:32:06.571Z,23.73
2016-09-19T09:33:16.915Z,23.82
2016-09-19T09:34:27.278Z,23.7
2016-09-19T09:35:37.629Z,23.7
2016-09-19T09:36:47.971Z,23.71
2016-09-19T09:37:38.249Z,23.69
2016-09-19T09:38:48.604Z,23.71
2016-09-19T09:39:58.959Z,23.82
2016-09-19T09:41:09.301Z,23.71
2016-09-19T09:42:19.661Z,23.69
2016-09-19T09:43:30.010Z,23.69
2016-09-19T09:44:40.368Z,23.7
2016-09-19T09:45:50.721Z,23.66
2016-09-19T09:47:01.080Z,23.69
2016-09-19T09:48:11.434Z,23.69
2016-09-19T09:49:21.792Z,23.71
2016-09-19T09:50:32.142Z,23.69
2016-09-19T09:51:42.502Z,23.71
2016-09-19T09:52:52.864Z,23.74
2016-09-19T09:54:03.223Z,23.69
2016-09-19T09:55:13.581Z,23.73
2016-09-19T09:56:23.958Z,23.69
2016-09-19T09:57:34.291Z,23.71
2016-09-19T09:58:44.651Z,23.69
2016-09-19T09:59:55.012Z,23.74
2016-09-19T10:01:05.379Z,23.7
2016-09-19T10:02:15.729Z,23.7
2016-09-19T10:03:26.086Z,23.73
2016-09-19T10:27:19.053Z,23.82
2016-09-19T10:28:29.409Z,23.74
2016-09-19T10:29:39.755Z,23.76
2016-09-19T10:30:50.109Z,23.76
2016-09-19T10:32:00.463Z,23.77
2016-09-19T10:33:10.814Z,23.82
2016-09-19T10:34:21.163Z,23.81
2016-09-19T10:35:31.512Z,23.73
2016-09-19T10:36:41.869Z,23.73
2016-09-19T10:37:52.208Z,23.84
2016-09-19T10:39:02.562Z,23.73
2016-09-19T10:40:12.917Z,23.81
2016-09-19T10:41:23.272Z,23.81
2016-09-19T10:42:33.628Z,23.71
2016-09-19T10:43:43.987Z,23.76
2016-09-19T10:44:54.340Z,23.73
2016-09-19T10:46:04.696Z,23.76
2016-09-19T10:47:15.056Z,23.77
2016-09-19T10:48:25.402Z,23.76
2016-09-19T10:49:35.773Z,23.86
2016-09-19T10:50:46.130Z,23.82
2016-09-19T10:51:56.486Z,23.69
2016-09-19T10:53:06.841Z,23.79
2016-09-19T10:54:17.200Z,23.79
2016-09-19T10:55:27.557Z,23.79
2016-09-19T10:56:38.071Z,23.79
2016-09-19T10:57:48.273Z,23.67
2016-09-19T10:58:58.638Z,23.82
2016-09-19T11:00:08.986Z,23.77
2016-09-19T11:27:05.595Z,23.76
2016-09-19T11:27:56.855Z,23.74
2016-09-19T11:29:07.255Z,23.69
2016-09-19T11:30:17.608Z,23.79
2016-09-19T11:31:27.965Z,23.67
2016-09-19T11:32:38.320Z,23.67
2016-09-19T11:33:48.672Z,23.74
2016-09-19T11:34:59.024Z,23.76
2016-09-19T11:36:09.380Z,23.73
2016-09-19T11:37:19.731Z,23.7
2016-09-19T11:38:30.081Z,23.7
2016-09-19T11:39:40.437Z,23.73
2016-09-19T11:40:50.797Z,23.71
2016-09-19T11:42:01.150Z,23.69
2016-09-19T11:43:11.510Z,23.74
2016-09-19T11:44:21.867Z,23.74
2016-09-19T11:45:32.221Z,23.71
2016-09-19T11:46:42.574Z,23.7
2016-09-19T12:27:25.995Z,23.69
2016-09-19T12:28:36.393Z,23.67
2016-09-19T12:29:46.742Z,23.73
2016-09-19T12:30:57.097Z,23.67
2016-09-19T12:32:07.439Z,23.7
2016-09-19T12:33:17.805Z,23.66
2016-09-19T12:34:28.156Z,23.67
2016-09-19T12:35:38.512Z,23.7
2016-09-19T12:36:48.864Z,23.74
2016-09-19T12:37:59.216Z,23.73
2016-09-19T12:39:09.572Z,23.71
2016-09-19T12:40:19.927Z,23.74
2016-09-19T12:41:30.277Z,23.71
2016-09-19T12:42:40.632Z,23.63
2016-09-19T12:43:50.989Z,23.69
2016-09-19T12:45:01.347Z,23.7
2016-09-19T12:46:11.719Z,23.69
2016-09-19T12:47:22.064Z,23.71
2016-09-19T12:48:32.432Z,23.73
2016-09-19T12:49:42.773Z,23.7
2016-09-19T12:50:53.131Z,23.74
2016-09-19T12:52:03.489Z,23.81
2016-09-19T13:27:34.992Z,23.69
2016-09-19T13:28:45.387Z,23.64
2016-09-19T13:29:55.738Z,23.64
2016-09-19T13:31:06.096Z,23.71
2016-09-19T13:32:16.447Z,23.64
2016-09-19T13:33:26.802Z,23.67
2016-09-19T13:34:37.155Z,23.66
2016-09-19T13:35:47.512Z,23.64
2016-09-19T13:36:57.865Z,23.69
2016-09-19T13:38:08.220Z,23.7
2016-09-19T13:39:18.568Z,23.67
2016-09-19T13:40:28.926Z,23.7
2016-09-19T13:41:39.267Z,23.66
2016-09-19T13:42:49.636Z,23.67
2016-09-19T13:43:59.995Z,23.67
2016-09-19T13:45:10.360Z,23.64
2016-09-19T13:46:20.709Z,23.67
2016-09-19T13:47:31.068Z,23.76
2016-09-19T13:48:41.427Z,23.77
2016-09-19T13:49:51.783Z,23.63
2016-09-19T14:27:33.489Z,23.64
2016-09-19T14:28:43.886Z,23.64
2016-09-19T14:29:54.239Z,23.69
2016-09-19T14:31:04.591Z,23.71
2016-09-19T14:32:14.944Z,23.77
2016-09-19T14:33:25.302Z,23.67
2016-09-19T14:34:35.656Z,23.73
2016-09-19T14:35:46.013Z,23.64
2016-09-19T14:36:56.365Z,23.69
2016-09-19T14:38:06.721Z,23.76
2016-09-19T14:39:17.072Z,23.73
2016-09-19T14:40:27.429Z,23.7
2016-09-19T14:41:37.775Z,23.84
2016-09-19T14:42:48.143Z,23.66
2016-09-19T14:43:58.502Z,23.67
2016-09-19T14:45:08.856Z,23.73
2016-09-19T14:46:19.217Z,23.66
2016-09-19T14:47:29.572Z,23.71
2016-09-19T14:48:39.921Z,23.71
2016-09-19T14:49:50.275Z,23.64
2016-09-19T14:51:00.635Z,23.48
2016-09-19T15:27:35.443Z,23.64
2016-09-19T15:28:45.839Z,23.7
2016-09-19T15:29:56.234Z,23.62
2016-09-19T15:31:06.587Z,23.64
2016-09-19T15:32:16.940Z,23.7
2016-09-19T15:33:27.297Z,23.64
2016-09-19T15:34:37.649Z,23.66
2016-09-19T15:35:47.997Z,23.67
2016-09-19T15:36:58.351Z,23.59
2016-09-19T15:38:08.704Z,23.66
2016-09-19T16:27:29.653Z,23.47
2016-09-19T16:28:40.051Z,23.42
2016-09-19T16:29:30.281Z,23.49
2016-09-19T16:30:40.633Z,23.49
2016-09-19T16:31:50.966Z,23.49
2016-09-19T16:33:01.333Z,23.47
2016-09-19T17:27:27.929Z,23.47
2016-09-19T17:28:38.330Z,23.47
2016-09-19T17:29:48.684Z,23.45
2016-09-19T17:30:58.924Z,23.51
2016-09-19T17:32:09.285Z,23.49
2016-09-19T17:33:19.621Z,23.49
2016-09-19T17:34:29.973Z,23.52
2016-09-19T17:35:40.321Z,23.48
2016-09-19T17:36:50.675Z,23.52
2016-09-19T17:38:01.039Z,23.51
2016-09-19T17:39:11.360Z,23.52
2016-09-19T17:40:21.720Z,23.52
2016-09-19T17:41:32.072Z,23.52
2016-09-19T17:42:42.432Z,23.54
2016-09-19T17:43:52.780Z,23.56
2016-09-19T17:45:03.129Z,23.55
2016-09-19T18:27:47.983Z,23.51
2016-09-19T19:28:02.516Z,23.81
2016-09-19T19:29:12.914Z,23.77
2016-09-19T19:30:23.312Z,23.74
2016-09-19T20:28:06.581Z,23.67
2016-09-19T21:28:04.478Z,23.64
2016-09-19T21:29:14.869Z,23.69
2016-09-19T21:30:25.213Z,23.67
2016-09-19T21:31:35.569Z,23.55
2016-09-19T21:32:45.922Z,23.64
2016-09-19T21:33:56.271Z,23.55
2016-09-19T21:35:06.623Z,23.56
2016-09-19T21:36:16.976Z,23.56
2016-09-19T21:37:27.220Z,23.59
2016-09-19T21:38:37.582Z,23.63
2016-09-19T21:39:47.937Z,23.52
2016-09-19T21:40:58.279Z,23.58
2016-09-19T21:42:08.644Z,23.56
2016-09-19T21:43:19.003Z,23.49
2016-09-19T21:44:29.346Z,23.59
2016-09-19T21:45:39.709Z,23.55
2016-09-19T21:46:50.067Z,23.55
2016-09-19T22:27:55.675Z,23.52
2016-09-19T23:27:49.888Z,23.32
2016-09-19T23:29:00.276Z,23.28
2016-09-19T23:30:10.630Z,23.34
2016-09-19T23:31:20.983Z,23.26
2016-09-19T23:32:31.332Z,23.34
2016-09-19T23:33:41.683Z,23.34
2016-09-19T23:34:52.045Z,23.29
2016-09-19T23:36:02.397Z,23.32
2016-09-19T23:37:12.748Z,23.32
2016-09-19T23:38:23.103Z,23.42
2016-09-19T23:39:33.453Z,23.28
2016-09-19T23:40:43.816Z,23.39
2016-09-19T23:41:54.173Z,23.28
2016-09-19T23:43:04.528Z,23.36
2016-09-19T23:44:14.882Z,23.28
2016-09-19T23:45:25.243Z,23.29
2016-09-19T23:46:35.597Z,23.34
2016-09-19T23:47:45.958Z,23.34
2016-09-19T23:48:56.311Z,23.39
